Crystal Bay, Minnesota
Current Conditions -  °F | °C
As of 8:53 AM on Saturday 20 Dec 2014 (Local Time) from KFCM Reporting Station
Haze Haze  
Wind Chill: 23°   Ceiling: 600
Heat Index: 31°   Visibility: 2.5mi
Dew Point: 27°   Wind: 9mph
Humidity: 85%   Direction: 160°SSE
Pressure: 30.13"   Gusts: NA
Location:  44.95°N, 93.58°W
Report Text: KFCM 201453Z 16008KT 2 1/2SM BR OVC006 M01/M03 A3013 RMK AO2 SLP214 T10061028 58001
Loading
Personal Weather Stations






























Interactive Weather Map New forecast layout! Learn more

10-Day Weather Forecast

Advertisements
Track Severe Weather on mobile